sensor_id;sensor_type;location;lat;lon;timestamp;P1;durP1;ratioP1;P2;durP2;ratioP2
70148;SDS011;57514;52.164;5.282;2023-04-16T00:00:27;6.55;;;2.45;;
70148;SDS011;57514;52.164;5.282;2023-04-16T00:02:55;8.32;;;2.25;;
70148;SDS011;57514;52.164;5.282;2023-04-16T00:05:22;9.93;;;2.60;;
70148;SDS011;57514;52.164;5.282;2023-04-16T00:07:50;9.20;;;2.60;;
70148;SDS011;57514;52.164;5.282;2023-04-16T00:10:18;8.15;;;2.33;;
70148;SDS011;57514;52.164;5.282;2023-04-16T00:12:45;7.20;;;2.17;;
70148;SDS011;57514;52.164;5.282;2023-04-16T00:15:12;8.88;;;2.35;;
70148;SDS011;57514;52.164;5.282;2023-04-16T00:17:40;8.63;;;2.42;;
70148;SDS011;57514;52.164;5.282;2023-04-16T00:20:07;7.10;;;2.53;;
70148;SDS011;57514;52.164;5.282;2023-04-16T00:22:34;7.85;;;2.15;;
70148;SDS011;57514;52.164;5.282;2023-04-16T00:25:02;6.82;;;2.03;;
70148;SDS011;57514;52.164;5.282;2023-04-16T00:27:29;8.57;;;2.50;;
70148;SDS011;57514;52.164;5.282;2023-04-16T00:29:59;8.38;;;2.22;;
70148;SDS011;57514;52.164;5.282;2023-04-16T00:32:29;9.02;;;2.90;;
70148;SDS011;57514;52.164;5.282;2023-04-16T00:34:57;5.63;;;2.15;;
70148;SDS011;57514;52.164;5.282;2023-04-16T00:37:24;6.85;;;2.15;;
70148;SDS011;57514;52.164;5.282;2023-04-16T00:39:51;7.45;;;2.58;;
70148;SDS011;57514;52.164;5.282;2023-04-16T00:42:18;7.93;;;2.50;;
70148;SDS011;57514;52.164;5.282;2023-04-16T00:44:45;7.45;;;2.60;;
70148;SDS011;57514;52.164;5.282;2023-04-16T00:47:12;5.93;;;2.10;;
70148;SDS011;57514;52.164;5.282;2023-04-16T00:49:40;7.90;;;2.50;;
70148;SDS011;57514;52.164;5.282;2023-04-16T00:52:07;8.05;;;2.88;;
70148;SDS011;57514;52.164;5.282;2023-04-16T00:54:34;7.13;;;2.15;;
70148;SDS011;57514;52.164;5.282;2023-04-16T00:57:02;6.07;;;2.42;;
70148;SDS011;57514;52.164;5.282;2023-04-16T00:59:29;5.18;;;2.25;;
70148;SDS011;57514;52.164;5.282;2023-04-16T01:01:56;8.70;;;2.75;;
70148;SDS011;57514;52.164;5.282;2023-04-16T01:04:24;9.20;;;2.83;;
70148;SDS011;57514;52.164;5.282;2023-04-16T01:06:52;5.72;;;2.60;;
70148;SDS011;57514;52.164;5.282;2023-04-16T01:09:19;7.72;;;2.58;;
70148;SDS011;57514;52.164;5.282;2023-04-16T01:11:46;7.35;;;2.72;;
70148;SDS011;57514;52.164;5.282;2023-04-16T01:14:15;7.15;;;2.40;;
70148;SDS011;57514;52.164;5.282;2023-04-16T01:16:42;8.68;;;2.45;;
70148;SDS011;57514;52.164;5.282;2023-04-16T01:19:09;9.20;;;3.35;;
70148;SDS011;57514;52.164;5.282;2023-04-16T01:21:37;9.65;;;3.85;;
70148;SDS011;57514;52.164;5.282;2023-04-16T01:24:04;10.30;;;3.13;;
70148;SDS011;57514;52.164;5.282;2023-04-16T01:26:31;9.43;;;3.00;;
70148;SDS011;57514;52.164;5.282;2023-04-16T01:28:59;10.55;;;3.60;;
70148;SDS011;57514;52.164;5.282;2023-04-16T01:31:26;10.98;;;3.75;;
70148;SDS011;57514;52.164;5.282;2023-04-16T01:34:03;8.90;;;3.78;;
70148;SDS011;57514;52.164;5.282;2023-04-16T01:36:33;9.98;;;3.83;;
70148;SDS011;57514;52.164;5.282;2023-04-16T01:39:00;10.18;;;3.40;;
70148;SDS011;57514;52.164;5.282;2023-04-16T01:41:27;11.55;;;4.75;;
70148;SDS011;57514;52.164;5.282;2023-04-16T01:43:54;10.77;;;3.83;;
70148;SDS011;57514;52.164;5.282;2023-04-16T01:46:24;8.98;;;3.47;;
70148;SDS011;57514;52.164;5.282;2023-04-16T01:48:56;13.13;;;3.97;;
70148;SDS011;57514;52.164;5.282;2023-04-16T01:51:23;11.52;;;4.20;;
70148;SDS011;57514;52.164;5.282;2023-04-16T01:53:50;10.77;;;4.30;;
70148;SDS011;57514;52.164;5.282;2023-04-16T01:56:18;8.55;;;3.45;;
70148;SDS011;57514;52.164;5.282;2023-04-16T01:58:45;9.73;;;3.88;;
70148;SDS011;57514;52.164;5.282;2023-04-16T02:01:14;11.15;;;3.83;;
70148;SDS011;57514;52.164;5.282;2023-04-16T02:03:43;8.40;;;3.65;;
70148;SDS011;57514;52.164;5.282;2023-04-16T02:06:10;9.60;;;3.72;;
70148;SDS011;57514;52.164;5.282;2023-04-16T02:08:38;9.75;;;3.50;;
70148;SDS011;57514;52.164;5.282;2023-04-16T02:11:06;11.75;;;4.40;;
70148;SDS011;57514;52.164;5.282;2023-04-16T02:13:34;10.32;;;4.07;;
70148;SDS011;57514;52.164;5.282;2023-04-16T02:16:01;11.10;;;4.25;;
70148;SDS011;57514;52.164;5.282;2023-04-16T02:18:46;12.15;;;4.00;;
70148;SDS011;57514;52.164;5.282;2023-04-16T02:21:15;13.05;;;5.03;;
70148;SDS011;57514;52.164;5.282;2023-04-16T02:23:43;11.43;;;4.53;;
70148;SDS011;57514;52.164;5.282;2023-04-16T02:26:13;14.63;;;4.32;;
70148;SDS011;57514;52.164;5.282;2023-04-16T02:28:41;12.52;;;4.65;;
70148;SDS011;57514;52.164;5.282;2023-04-16T02:31:10;11.15;;;4.57;;
70148;SDS011;57514;52.164;5.282;2023-04-16T02:33:41;11.25;;;4.30;;
70148;SDS011;57514;52.164;5.282;2023-04-16T02:36:09;14.65;;;4.70;;
70148;SDS011;57514;52.164;5.282;2023-04-16T02:38:36;12.15;;;4.57;;
70148;SDS011;57514;52.164;5.282;2023-04-16T02:41:04;14.88;;;4.75;;
70148;SDS011;57514;52.164;5.282;2023-04-16T02:43:32;12.75;;;5.03;;
70148;SDS011;57514;52.164;5.282;2023-04-16T02:46:00;14.82;;;4.20;;
70148;SDS011;57514;52.164;5.282;2023-04-16T02:48:27;13.45;;;4.63;;
70148;SDS011;57514;52.164;5.282;2023-04-16T02:50:55;13.55;;;4.45;;
70148;SDS011;57514;52.164;5.282;2023-04-16T02:53:22;12.80;;;4.47;;
70148;SDS011;57514;52.164;5.282;2023-04-16T02:55:53;12.48;;;4.43;;
70148;SDS011;57514;52.164;5.282;2023-04-16T02:58:21;12.68;;;4.05;;
70148;SDS011;57514;52.164;5.282;2023-04-16T03:00:49;15.73;;;5.15;;
70148;SDS011;57514;52.164;5.282;2023-04-16T03:03:16;13.63;;;4.68;;
70148;SDS011;57514;52.164;5.282;2023-04-16T03:05:44;13.32;;;4.72;;
70148;SDS011;57514;52.164;5.282;2023-04-16T03:08:11;13.68;;;4.50;;
70148;SDS011;57514;52.164;5.282;2023-04-16T03:10:39;14.27;;;4.90;;
70148;SDS011;57514;52.164;5.282;2023-04-16T03:13:06;19.13;;;6.35;;
70148;SDS011;57514;52.164;5.282;2023-04-16T03:15:34;14.40;;;5.47;;
70148;SDS011;57514;52.164;5.282;2023-04-16T03:18:01;13.82;;;5.03;;
70148;SDS011;57514;52.164;5.282;2023-04-16T03:20:29;13.30;;;4.93;;
70148;SDS011;57514;52.164;5.282;2023-04-16T03:22:57;17.05;;;4.65;;
70148;SDS011;57514;52.164;5.282;2023-04-16T03:25:24;14.02;;;5.13;;
70148;SDS011;57514;52.164;5.282;2023-04-16T03:27:51;18.75;;;5.72;;
70148;SDS011;57514;52.164;5.282;2023-04-16T03:30:19;15.95;;;5.22;;
70148;SDS011;57514;52.164;5.282;2023-04-16T03:32:46;14.25;;;5.55;;
70148;SDS011;57514;52.164;5.282;2023-04-16T03:35:14;20.17;;;6.40;;
70148;SDS011;57514;52.164;5.282;2023-04-16T03:37:41;18.80;;;5.90;;
70148;SDS011;57514;52.164;5.282;2023-04-16T03:40:09;17.67;;;5.72;;
70148;SDS011;57514;52.164;5.282;2023-04-16T03:42:36;16.15;;;5.30;;
70148;SDS011;57514;52.164;5.282;2023-04-16T03:45:04;17.00;;;5.60;;
70148;SDS011;57514;52.164;5.282;2023-04-16T03:47:31;14.98;;;5.15;;
70148;SDS011;57514;52.164;5.282;2023-04-16T03:50:01;15.93;;;5.85;;
70148;SDS011;57514;52.164;5.282;2023-04-16T03:52:28;15.77;;;6.03;;
70148;SDS011;57514;52.164;5.282;2023-04-16T03:54:56;14.20;;;5.70;;
70148;SDS011;57514;52.164;5.282;2023-04-16T03:57:25;15.52;;;6.07;;
70148;SDS011;57514;52.164;5.282;2023-04-16T03:59:58;16.90;;;5.82;;
70148;SDS011;57514;52.164;5.282;2023-04-16T04:02:28;17.77;;;6.30;;
70148;SDS011;57514;52.164;5.282;2023-04-16T04:04:56;15.32;;;5.63;;
70148;SDS011;57514;52.164;5.282;2023-04-16T04:07:23;20.45;;;6.80;;
70148;SDS011;57514;52.164;5.282;2023-04-16T04:09:51;17.15;;;6.20;;
70148;SDS011;57514;52.164;5.282;2023-04-16T04:12:19;19.33;;;6.30;;
70148;SDS011;57514;52.164;5.282;2023-04-16T04:14:46;18.23;;;6.72;;
70148;SDS011;57514;52.164;5.282;2023-04-16T04:17:13;16.52;;;6.35;;
70148;SDS011;57514;52.164;5.282;2023-04-16T04:19:40;16.05;;;5.97;;
70148;SDS011;57514;52.164;5.282;2023-04-16T04:22:26;17.70;;;6.32;;
70148;SDS011;57514;52.164;5.282;2023-04-16T04:24:53;15.40;;;6.13;;
70148;SDS011;57514;52.164;5.282;2023-04-16T04:27:21;17.35;;;6.78;;
70148;SDS011;57514;52.164;5.282;2023-04-16T04:29:48;17.67;;;6.32;;
70148;SDS011;57514;52.164;5.282;2023-04-16T04:32:15;18.73;;;6.32;;
70148;SDS011;57514;52.164;5.282;2023-04-16T04:34:45;19.98;;;6.40;;
70148;SDS011;57514;52.164;5.282;2023-04-16T04:37:13;18.77;;;6.53;;
70148;SDS011;57514;52.164;5.282;2023-04-16T04:39:42;19.40;;;6.82;;
70148;SDS011;57514;52.164;5.282;2023-04-16T04:42:10;16.70;;;6.78;;
70148;SDS011;57514;52.164;5.282;2023-04-16T04:44:38;20.95;;;6.70;;
70148;SDS011;57514;52.164;5.282;2023-04-16T04:47:06;17.13;;;6.82;;
70148;SDS011;57514;52.164;5.282;2023-04-16T04:49:34;18.90;;;6.93;;
70148;SDS011;57514;52.164;5.282;2023-04-16T04:52:01;18.15;;;7.60;;
70148;SDS011;57514;52.164;5.282;2023-04-16T04:54:30;19.35;;;6.82;;
70148;SDS011;57514;52.164;5.282;2023-04-16T04:56:58;19.73;;;7.40;;
70148;SDS011;57514;52.164;5.282;2023-04-16T04:59:26;22.38;;;7.90;;
70148;SDS011;57514;52.164;5.282;2023-04-16T05:01:54;20.63;;;7.63;;
70148;SDS011;57514;52.164;5.282;2023-04-16T05:04:21;23.90;;;7.32;;
70148;SDS011;57514;52.164;5.282;2023-04-16T05:06:48;20.77;;;7.40;;
70148;SDS011;57514;52.164;5.282;2023-04-16T05:09:16;21.27;;;7.25;;
70148;SDS011;57514;52.164;5.282;2023-04-16T05:11:43;16.88;;;6.53;;
70148;SDS011;57514;52.164;5.282;2023-04-16T05:14:10;21.13;;;7.25;;
70148;SDS011;57514;52.164;5.282;2023-04-16T05:16:37;16.60;;;6.10;;
70148;SDS011;57514;52.164;5.282;2023-04-16T05:19:05;19.83;;;7.35;;
70148;SDS011;57514;52.164;5.282;2023-04-16T05:21:32;20.02;;;7.85;;
70148;SDS011;57514;52.164;5.282;2023-04-16T05:23:59;23.35;;;7.78;;
70148;SDS011;57514;52.164;5.282;2023-04-16T05:26:26;19.33;;;7.93;;
70148;SDS011;57514;52.164;5.282;2023-04-16T05:28:53;20.42;;;7.57;;
70148;SDS011;57514;52.164;5.282;2023-04-16T05:31:21;20.77;;;7.25;;
70148;SDS011;57514;52.164;5.282;2023-04-16T05:33:48;17.65;;;7.22;;
70148;SDS011;57514;52.164;5.282;2023-04-16T05:36:15;19.23;;;8.13;;
70148;SDS011;57514;52.164;5.282;2023-04-16T05:38:42;22.77;;;7.65;;
70148;SDS011;57514;52.164;5.282;2023-04-16T05:41:09;19.50;;;7.78;;
70148;SDS011;57514;52.164;5.282;2023-04-16T05:43:37;22.10;;;8.50;;
70148;SDS011;57514;52.164;5.282;2023-04-16T05:46:04;21.13;;;8.15;;
70148;SDS011;57514;52.164;5.282;2023-04-16T05:48:31;19.38;;;8.25;;
70148;SDS011;57514;52.164;5.282;2023-04-16T05:50:58;20.83;;;8.10;;
70148;SDS011;57514;52.164;5.282;2023-04-16T05:53:27;20.85;;;8.80;;
70148;SDS011;57514;52.164;5.282;2023-04-16T05:55:54;22.67;;;8.45;;
70148;SDS011;57514;52.164;5.282;2023-04-16T05:58:22;26.70;;;7.95;;
70148;SDS011;57514;52.164;5.282;2023-04-16T06:00:49;26.20;;;9.00;;
70148;SDS011;57514;52.164;5.282;2023-04-16T06:03:16;24.00;;;9.05;;
70148;SDS011;57514;52.164;5.282;2023-04-16T06:05:44;21.00;;;7.72;;
70148;SDS011;57514;52.164;5.282;2023-04-16T06:08:11;23.27;;;7.70;;
70148;SDS011;57514;52.164;5.282;2023-04-16T06:10:39;26.83;;;8.05;;
70148;SDS011;57514;52.164;5.282;2023-04-16T06:13:06;25.48;;;8.90;;
70148;SDS011;57514;52.164;5.282;2023-04-16T06:15:33;24.08;;;8.45;;
70148;SDS011;57514;52.164;5.282;2023-04-16T06:18:00;24.48;;;8.75;;
70148;SDS011;57514;52.164;5.282;2023-04-16T06:20:28;20.08;;;8.27;;
70148;SDS011;57514;52.164;5.282;2023-04-16T06:22:57;23.02;;;7.80;;
70148;SDS011;57514;52.164;5.282;2023-04-16T06:25:25;25.80;;;8.10;;
70148;SDS011;57514;52.164;5.282;2023-04-16T06:27:52;19.77;;;9.38;;
70148;SDS011;57514;52.164;5.282;2023-04-16T06:30:20;23.65;;;8.15;;
70148;SDS011;57514;52.164;5.282;2023-04-16T06:32:47;21.90;;;8.70;;
70148;SDS011;57514;52.164;5.282;2023-04-16T06:35:15;21.05;;;8.50;;
70148;SDS011;57514;52.164;5.282;2023-04-16T06:37:45;22.77;;;8.27;;
70148;SDS011;57514;52.164;5.282;2023-04-16T06:40:12;22.52;;;8.85;;
70148;SDS011;57514;52.164;5.282;2023-04-16T06:42:40;23.27;;;8.35;;
70148;SDS011;57514;52.164;5.282;2023-04-16T06:45:10;21.30;;;8.35;;
70148;SDS011;57514;52.164;5.282;2023-04-16T06:47:38;18.15;;;7.90;;
70148;SDS011;57514;52.164;5.282;2023-04-16T06:50:06;20.15;;;7.25;;
70148;SDS011;57514;52.164;5.282;2023-04-16T06:52:33;17.77;;;7.70;;
70148;SDS011;57514;52.164;5.282;2023-04-16T06:55:00;20.77;;;7.75;;
70148;SDS011;57514;52.164;5.282;2023-04-16T06:57:27;21.63;;;8.02;;
70148;SDS011;57514;52.164;5.282;2023-04-16T06:59:55;20.52;;;8.15;;
70148;SDS011;57514;52.164;5.282;2023-04-16T07:02:22;22.45;;;8.60;;
70148;SDS011;57514;52.164;5.282;2023-04-16T07:04:50;24.55;;;8.65;;
70148;SDS011;57514;52.164;5.282;2023-04-16T07:07:17;17.30;;;7.93;;
70148;SDS011;57514;52.164;5.282;2023-04-16T07:09:44;20.73;;;8.35;;
70148;SDS011;57514;52.164;5.282;2023-04-16T07:12:12;19.48;;;8.43;;
70148;SDS011;57514;52.164;5.282;2023-04-16T07:14:39;22.08;;;8.52;;
70148;SDS011;57514;52.164;5.282;2023-04-16T07:17:07;26.00;;;8.80;;
70148;SDS011;57514;52.164;5.282;2023-04-16T07:19:34;24.13;;;9.00;;
70148;SDS011;57514;52.164;5.282;2023-04-16T07:22:02;21.70;;;9.05;;
70148;SDS011;57514;52.164;5.282;2023-04-16T07:24:29;20.35;;;8.75;;
70148;SDS011;57514;52.164;5.282;2023-04-16T07:26:57;22.40;;;8.73;;
70148;SDS011;57514;52.164;5.282;2023-04-16T07:29:28;24.15;;;8.82;;
70148;SDS011;57514;52.164;5.282;2023-04-16T07:31:55;24.77;;;10.10;;
70148;SDS011;57514;52.164;5.282;2023-04-16T07:34:23;22.42;;;9.10;;
70148;SDS011;57514;52.164;5.282;2023-04-16T07:36:50;22.88;;;10.15;;
70148;SDS011;57514;52.164;5.282;2023-04-16T07:39:17;19.70;;;7.60;;
70148;SDS011;57514;52.164;5.282;2023-04-16T07:41:44;18.40;;;8.80;;
70148;SDS011;57514;52.164;5.282;2023-04-16T07:44:11;19.77;;;7.65;;
70148;SDS011;57514;52.164;5.282;2023-04-16T07:46:39;16.98;;;7.47;;
70148;SDS011;57514;52.164;5.282;2023-04-16T07:49:12;15.40;;;7.35;;
70148;SDS011;57514;52.164;5.282;2023-04-16T07:51:39;17.98;;;6.97;;
70148;SDS011;57514;52.164;5.282;2023-04-16T07:54:07;17.23;;;7.22;;
70148;SDS011;57514;52.164;5.282;2023-04-16T07:56:34;15.60;;;7.05;;
70148;SDS011;57514;52.164;5.282;2023-04-16T07:59:01;15.65;;;6.55;;
70148;SDS011;57514;52.164;5.282;2023-04-16T08:01:47;15.30;;;6.82;;
70148;SDS011;57514;52.164;5.282;2023-04-16T08:04:15;16.17;;;6.57;;
70148;SDS011;57514;52.164;5.282;2023-04-16T08:06:49;13.10;;;4.88;;
70148;SDS011;57514;52.164;5.282;2023-04-16T08:09:17;13.88;;;5.93;;
70148;SDS011;57514;52.164;5.282;2023-04-16T08:11:44;12.98;;;6.15;;
70148;SDS011;57514;52.164;5.282;2023-04-16T08:14:12;13.60;;;5.50;;
70148;SDS011;57514;52.164;5.282;2023-04-16T08:16:39;14.35;;;5.85;;
70148;SDS011;57514;52.164;5.282;2023-04-16T08:19:07;13.90;;;5.65;;
70148;SDS011;57514;52.164;5.282;2023-04-16T08:21:35;11.95;;;6.18;;
70148;SDS011;57514;52.164;5.282;2023-04-16T08:24:02;14.40;;;6.20;;
70148;SDS011;57514;52.164;5.282;2023-04-16T08:26:29;13.55;;;5.80;;
70148;SDS011;57514;52.164;5.282;2023-04-16T08:28:56;14.55;;;5.28;;
70148;SDS011;57514;52.164;5.282;2023-04-16T08:31:24;11.75;;;4.97;;
70148;SDS011;57514;52.164;5.282;2023-04-16T08:33:51;11.60;;;5.35;;
70148;SDS011;57514;52.164;5.282;2023-04-16T08:36:18;13.27;;;5.00;;
70148;SDS011;57514;52.164;5.282;2023-04-16T08:38:46;11.48;;;5.45;;
70148;SDS011;57514;52.164;5.282;2023-04-16T08:41:13;10.95;;;4.88;;
70148;SDS011;57514;52.164;5.282;2023-04-16T08:43:42;11.45;;;4.93;;
70148;SDS011;57514;52.164;5.282;2023-04-16T08:46:10;12.88;;;5.15;;
70148;SDS011;57514;52.164;5.282;2023-04-16T08:48:38;13.73;;;4.70;;
70148;SDS011;57514;52.164;5.282;2023-04-16T08:51:09;11.40;;;5.25;;
70148;SDS011;57514;52.164;5.282;2023-04-16T08:54:20;12.32;;;5.85;;
70148;SDS011;57514;52.164;5.282;2023-04-16T08:56:27;11.75;;;4.70;;
70148;SDS011;57514;52.164;5.282;2023-04-16T08:58:54;12.85;;;5.55;;
70148;SDS011;57514;52.164;5.282;2023-04-16T09:01:23;12.45;;;5.15;;
70148;SDS011;57514;52.164;5.282;2023-04-16T09:03:52;11.10;;;5.28;;
70148;SDS011;57514;52.164;5.282;2023-04-16T09:06:20;13.07;;;4.80;;
70148;SDS011;57514;52.164;5.282;2023-04-16T09:08:47;13.57;;;4.85;;
70148;SDS011;57514;52.164;5.282;2023-04-16T09:11:18;13.57;;;4.78;;
70148;SDS011;57514;52.164;5.282;2023-04-16T09:13:45;11.32;;;4.82;;
70148;SDS011;57514;52.164;5.282;2023-04-16T09:16:13;11.88;;;4.55;;
70148;SDS011;57514;52.164;5.282;2023-04-16T09:18:40;10.18;;;3.85;;
70148;SDS011;57514;52.164;5.282;2023-04-16T09:21:08;11.45;;;4.50;;
70148;SDS011;57514;52.164;5.282;2023-04-16T09:23:37;9.45;;;4.00;;
70148;SDS011;57514;52.164;5.282;2023-04-16T09:26:05;9.73;;;4.25;;
70148;SDS011;57514;52.164;5.282;2023-04-16T09:33:36;9.85;;;4.13;;
70148;SDS011;57514;52.164;5.282;2023-04-16T09:36:04;10.77;;;4.50;;
70148;SDS011;57514;52.164;5.282;2023-04-16T09:38:45;11.20;;;4.50;;
70148;SDS011;57514;52.164;5.282;2023-04-16T09:41:13;11.05;;;4.30;;
70148;SDS011;57514;52.164;5.282;2023-04-16T09:44:01;13.15;;;4.70;;
70148;SDS011;57514;52.164;5.282;2023-04-16T09:46:36;10.60;;;4.65;;
70148;SDS011;57514;52.164;5.282;2023-04-16T09:49:08;10.77;;;4.85;;
70148;SDS011;57514;52.164;5.282;2023-04-16T09:51:36;14.35;;;5.55;;
70148;SDS011;57514;52.164;5.282;2023-04-16T09:54:04;10.50;;;4.80;;
70148;SDS011;57514;52.164;5.282;2023-04-16T09:56:32;10.95;;;5.05;;
70148;SDS011;57514;52.164;5.282;2023-04-16T09:59:00;15.88;;;5.72;;
70148;SDS011;57514;52.164;5.282;2023-04-16T10:01:28;11.30;;;4.90;;
70148;SDS011;57514;52.164;5.282;2023-04-16T10:03:58;11.43;;;4.97;;
70148;SDS011;57514;52.164;5.282;2023-04-16T10:06:26;12.27;;;4.70;;
70148;SDS011;57514;52.164;5.282;2023-04-16T10:08:55;13.02;;;5.45;;
70148;SDS011;57514;52.164;5.282;2023-04-16T10:11:22;15.00;;;5.90;;
70148;SDS011;57514;52.164;5.282;2023-04-16T10:13:50;14.02;;;5.57;;
70148;SDS011;57514;52.164;5.282;2023-04-16T10:16:17;14.38;;;6.07;;
70148;SDS011;57514;52.164;5.282;2023-04-16T10:18:45;12.32;;;5.20;;
70148;SDS011;57514;52.164;5.282;2023-04-16T10:21:12;16.27;;;6.22;;
70148;SDS011;57514;52.164;5.282;2023-04-16T10:23:42;15.93;;;6.40;;
70148;SDS011;57514;52.164;5.282;2023-04-16T10:26:09;16.08;;;6.53;;
70148;SDS011;57514;52.164;5.282;2023-04-16T10:28:37;13.90;;;6.10;;
70148;SDS011;57514;52.164;5.282;2023-04-16T10:31:06;15.90;;;6.72;;
70148;SDS011;57514;52.164;5.282;2023-04-16T10:33:34;16.48;;;6.85;;
70148;SDS011;57514;52.164;5.282;2023-04-16T10:36:10;11.88;;;5.70;;
70148;SDS011;57514;52.164;5.282;2023-04-16T10:38:44;17.15;;;7.32;;
70148;SDS011;57514;52.164;5.282;2023-04-16T10:41:11;15.73;;;6.05;;
70148;SDS011;57514;52.164;5.282;2023-04-16T10:43:40;16.23;;;7.22;;
70148;SDS011;57514;52.164;5.282;2023-04-16T10:48:46;16.77;;;9.05;;
70148;SDS011;57514;52.164;5.282;2023-04-16T10:51:23;17.70;;;7.78;;
70148;SDS011;57514;52.164;5.282;2023-04-16T10:53:53;19.77;;;8.27;;
70148;SDS011;57514;52.164;5.282;2023-04-16T10:56:24;19.90;;;8.00;;
70148;SDS011;57514;52.164;5.282;2023-04-16T10:58:55;20.90;;;8.20;;
70148;SDS011;57514;52.164;5.282;2023-04-16T11:03:50;20.15;;;7.88;;
70148;SDS011;57514;52.164;5.282;2023-04-16T11:06:24;21.23;;;8.25;;
70148;SDS011;57514;52.164;5.282;2023-04-16T11:08:52;17.58;;;7.55;;
70148;SDS011;57514;52.164;5.282;2023-04-16T11:11:20;21.58;;;7.78;;
70148;SDS011;57514;52.164;5.282;2023-04-16T11:13:48;22.65;;;8.43;;
70148;SDS011;57514;52.164;5.282;2023-04-16T11:16:15;22.58;;;8.15;;
70148;SDS011;57514;52.164;5.282;2023-04-16T11:18:44;19.30;;;8.30;;
70148;SDS011;57514;52.164;5.282;2023-04-16T11:21:16;22.23;;;8.27;;
70148;SDS011;57514;52.164;5.282;2023-04-16T11:23:44;17.90;;;7.97;;
70148;SDS011;57514;52.164;5.282;2023-04-16T11:26:46;19.25;;;8.05;;
70148;SDS011;57514;52.164;5.282;2023-04-16T11:29:12;17.75;;;7.00;;
70148;SDS011;57514;52.164;5.282;2023-04-16T11:31:40;17.13;;;7.10;;
70148;SDS011;57514;52.164;5.282;2023-04-16T11:34:08;16.27;;;7.70;;
70148;SDS011;57514;52.164;5.282;2023-04-16T11:36:48;16.08;;;6.88;;
70148;SDS011;57514;52.164;5.282;2023-04-16T11:39:16;17.33;;;6.75;;
70148;SDS011;57514;52.164;5.282;2023-04-16T11:41:48;14.85;;;7.07;;
70148;SDS011;57514;52.164;5.282;2023-04-16T11:44:18;14.30;;;5.32;;
70148;SDS011;57514;52.164;5.282;2023-04-16T11:46:45;15.40;;;6.18;;
70148;SDS011;57514;52.164;5.282;2023-04-16T11:49:14;17.63;;;7.10;;
70148;SDS011;57514;52.164;5.282;2023-04-16T11:54:18;15.55;;;6.05;;
70148;SDS011;57514;52.164;5.282;2023-04-16T11:56:47;17.63;;;7.10;;
70148;SDS011;57514;52.164;5.282;2023-04-16T11:59:18;16.80;;;6.97;;
70148;SDS011;57514;52.164;5.282;2023-04-16T12:01:47;16.45;;;7.57;;
70148;SDS011;57514;52.164;5.282;2023-04-16T12:04:15;16.23;;;6.20;;
70148;SDS011;57514;52.164;5.282;2023-04-16T12:07:03;15.57;;;7.13;;
70148;SDS011;57514;52.164;5.282;2023-04-16T12:09:30;15.10;;;6.05;;
70148;SDS011;57514;52.164;5.282;2023-04-16T12:11:57;14.40;;;6.78;;
70148;SDS011;57514;52.164;5.282;2023-04-16T12:14:24;14.35;;;6.32;;
70148;SDS011;57514;52.164;5.282;2023-04-16T12:16:52;17.10;;;7.55;;
70148;SDS011;57514;52.164;5.282;2023-04-16T12:19:21;17.73;;;6.72;;
70148;SDS011;57514;52.164;5.282;2023-04-16T12:21:48;16.08;;;6.60;;
70148;SDS011;57514;52.164;5.282;2023-04-16T12:24:17;16.35;;;7.05;;
70148;SDS011;57514;52.164;5.282;2023-04-16T12:26:53;19.08;;;7.78;;
70148;SDS011;57514;52.164;5.282;2023-04-16T12:29:29;17.67;;;7.22;;
70148;SDS011;57514;52.164;5.282;2023-04-16T12:31:57;18.67;;;7.47;;
70148;SDS011;57514;52.164;5.282;2023-04-16T12:34:24;19.27;;;7.00;;
70148;SDS011;57514;52.164;5.282;2023-04-16T12:37:11;19.50;;;6.57;;
70148;SDS011;57514;52.164;5.282;2023-04-16T12:39:40;18.67;;;7.25;;
70148;SDS011;57514;52.164;5.282;2023-04-16T12:42:07;16.33;;;6.43;;
70148;SDS011;57514;52.164;5.282;2023-04-16T12:44:36;17.92;;;7.00;;
70148;SDS011;57514;52.164;5.282;2023-04-16T12:47:03;15.88;;;6.50;;
70148;SDS011;57514;52.164;5.282;2023-04-16T12:49:34;18.38;;;8.05;;
70148;SDS011;57514;52.164;5.282;2023-04-16T12:52:01;17.77;;;7.50;;
70148;SDS011;57514;52.164;5.282;2023-04-16T12:54:28;17.25;;;7.20;;
70148;SDS011;57514;52.164;5.282;2023-04-16T12:56:56;18.63;;;7.15;;
70148;SDS011;57514;52.164;5.282;2023-04-16T12:59:23;16.27;;;6.70;;
70148;SDS011;57514;52.164;5.282;2023-04-16T13:01:51;16.55;;;7.05;;
70148;SDS011;57514;52.164;5.282;2023-04-16T13:04:18;16.98;;;7.53;;
70148;SDS011;57514;52.164;5.282;2023-04-16T13:06:48;21.63;;;7.45;;
70148;SDS011;57514;52.164;5.282;2023-04-16T13:09:15;15.93;;;6.78;;
70148;SDS011;57514;52.164;5.282;2023-04-16T13:11:44;15.98;;;7.38;;
70148;SDS011;57514;52.164;5.282;2023-04-16T13:14:12;16.90;;;7.53;;
70148;SDS011;57514;52.164;5.282;2023-04-16T13:16:39;19.08;;;7.47;;
70148;SDS011;57514;52.164;5.282;2023-04-16T13:19:06;19.40;;;7.72;;
70148;SDS011;57514;52.164;5.282;2023-04-16T13:21:34;20.20;;;8.35;;
70148;SDS011;57514;52.164;5.282;2023-04-16T13:24:01;18.83;;;8.68;;
70148;SDS011;57514;52.164;5.282;2023-04-16T13:26:29;18.15;;;9.30;;
70148;SDS011;57514;52.164;5.282;2023-04-16T13:28:55;22.08;;;10.10;;
70148;SDS011;57514;52.164;5.282;2023-04-16T13:31:23;19.98;;;10.10;;
70148;SDS011;57514;52.164;5.282;2023-04-16T13:33:51;20.88;;;9.88;;
70148;SDS011;57514;52.164;5.282;2023-04-16T13:36:18;23.92;;;9.35;;
70148;SDS011;57514;52.164;5.282;2023-04-16T13:38:45;21.05;;;10.02;;
70148;SDS011;57514;52.164;5.282;2023-04-16T13:41:13;25.52;;;9.95;;
70148;SDS011;57514;52.164;5.282;2023-04-16T13:43:40;18.05;;;8.95;;
70148;SDS011;57514;52.164;5.282;2023-04-16T13:46:07;20.23;;;8.88;;
70148;SDS011;57514;52.164;5.282;2023-04-16T13:48:34;23.15;;;10.20;;
70148;SDS011;57514;52.164;5.282;2023-04-16T13:51:01;20.45;;;10.48;;
70148;SDS011;57514;52.164;5.282;2023-04-16T13:53:29;22.38;;;10.65;;
70148;SDS011;57514;52.164;5.282;2023-04-16T13:55:56;24.98;;;11.15;;
70148;SDS011;57514;52.164;5.282;2023-04-16T13:58:23;23.23;;;9.68;;
70148;SDS011;57514;52.164;5.282;2023-04-16T14:00:50;20.63;;;9.30;;
70148;SDS011;57514;52.164;5.282;2023-04-16T14:03:17;20.63;;;10.57;;
70148;SDS011;57514;52.164;5.282;2023-04-16T14:05:45;24.83;;;9.55;;
70148;SDS011;57514;52.164;5.282;2023-04-16T14:08:12;22.88;;;9.55;;
70148;SDS011;57514;52.164;5.282;2023-04-16T14:10:41;25.10;;;9.95;;
70148;SDS011;57514;52.164;5.282;2023-04-16T14:13:08;24.70;;;9.23;;
70148;SDS011;57514;52.164;5.282;2023-04-16T14:15:36;21.27;;;9.18;;
70148;SDS011;57514;52.164;5.282;2023-04-16T14:18:03;21.13;;;8.85;;
70148;SDS011;57514;52.164;5.282;2023-04-16T14:20:31;23.80;;;9.50;;
70148;SDS011;57514;52.164;5.282;2023-04-16T14:22:58;24.45;;;9.52;;
70148;SDS011;57514;52.164;5.282;2023-04-16T14:25:25;23.15;;;9.15;;
70148;SDS011;57514;52.164;5.282;2023-04-16T14:27:53;25.52;;;9.68;;
70148;SDS011;57514;52.164;5.282;2023-04-16T14:30:20;24.40;;;8.60;;
70148;SDS011;57514;52.164;5.282;2023-04-16T14:32:47;21.52;;;8.45;;
70148;SDS011;57514;52.164;5.282;2023-04-16T14:35:14;22.20;;;8.57;;
70148;SDS011;57514;52.164;5.282;2023-04-16T14:37:41;20.80;;;8.18;;
70148;SDS011;57514;52.164;5.282;2023-04-16T14:40:08;21.35;;;8.10;;
70148;SDS011;57514;52.164;5.282;2023-04-16T14:42:37;20.75;;;8.07;;
70148;SDS011;57514;52.164;5.282;2023-04-16T14:45:05;21.42;;;8.90;;
70148;SDS011;57514;52.164;5.282;2023-04-16T14:47:32;19.95;;;8.20;;
70148;SDS011;57514;52.164;5.282;2023-04-16T14:50:00;21.50;;;8.68;;
70148;SDS011;57514;52.164;5.282;2023-04-16T14:52:29;20.83;;;9.48;;
70148;SDS011;57514;52.164;5.282;2023-04-16T14:54:58;19.63;;;8.93;;